createdAt,value
2023-04-20T00:00:02.179Z,39.85
2023-04-20T00:02:40.417Z,40.06
2023-04-20T00:05:07.990Z,39.98
2023-04-20T00:07:35.602Z,39.94
2023-04-20T00:10:03.679Z,40.81
2023-04-20T00:12:30.696Z,40.64
2023-04-20T00:14:57.310Z,40.20
2023-04-20T00:17:23.976Z,40.20
2023-04-20T00:19:51.089Z,40.03
2023-04-20T00:22:17.720Z,40.02
2023-04-20T00:24:44.394Z,40.50
2023-04-20T00:27:11.802Z,40.64
2023-04-20T00:29:38.614Z,41.19
2023-04-20T00:32:06.194Z,41.37
2023-04-20T00:34:32.970Z,41.06
2023-04-20T00:37:00.926Z,40.71
2023-04-20T00:39:27.554Z,40.51
2023-04-20T00:41:54.416Z,41.31
2023-04-20T00:44:21.096Z,41.83
2023-04-20T00:46:47.712Z,41.65
2023-04-20T00:49:14.456Z,42.10
2023-04-20T00:51:41.174Z,41.88
2023-04-20T00:54:07.854Z,41.79
2023-04-20T00:56:34.822Z,42.21
2023-04-20T00:59:02.092Z,42.48
2023-04-20T01:01:29.095Z,42.42
2023-04-20T01:03:55.936Z,42.59
2023-04-20T01:06:22.718Z,43.42
2023-04-20T01:08:50.660Z,43.58
2023-04-20T01:11:18.059Z,43.76
2023-04-20T01:13:44.810Z,43.48
2023-04-20T01:16:12.114Z,44.25
2023-04-20T01:18:44.006Z,44.53
2023-04-20T01:21:15.340Z,44.23
2023-04-20T01:23:42.462Z,44.43
2023-04-20T01:26:10.897Z,44.45
2023-04-20T01:28:38.106Z,44.66
2023-04-20T01:31:07.002Z,44.99
2023-04-20T01:33:34.520Z,44.32
2023-04-20T01:36:01.466Z,45.01
2023-04-20T01:38:32.064Z,45.50
2023-04-20T01:41:02.954Z,44.40
2023-04-20T01:43:29.696Z,44.68
2023-04-20T01:45:56.332Z,45.26
2023-04-20T01:48:22.961Z,44.97
2023-04-20T01:50:53.092Z,45.44
2023-04-20T01:53:20.154Z,44.72
2023-04-20T01:55:48.501Z,45.36
2023-04-20T01:58:15.388Z,45.34
2023-04-20T02:00:42.202Z,45.89
2023-04-20T02:03:09.289Z,45.52
2023-04-20T02:05:36.029Z,45.34
2023-04-20T02:08:02.732Z,46.26
2023-04-20T02:10:29.409Z,46.57
2023-04-20T02:12:56.182Z,46.47
2023-04-20T02:15:22.956Z,47.10
2023-04-20T02:17:52.170Z,46.36
2023-04-20T02:20:19.957Z,47.07
2023-04-20T02:22:46.897Z,47.23
2023-04-20T02:25:14.316Z,47.51
2023-04-20T02:27:41.256Z,47.05
2023-04-20T02:30:08.620Z,47.40
2023-04-20T02:32:35.399Z,47.29
2023-04-20T02:35:04.051Z,47.93
2023-04-20T02:37:32.137Z,47.35
2023-04-20T02:39:58.767Z,47.32
2023-04-20T02:42:27.205Z,48.02
2023-04-20T02:44:56.030Z,48.27
2023-04-20T02:47:22.777Z,47.95
2023-04-20T02:49:51.387Z,48.53
2023-04-20T02:52:18.261Z,48.25
2023-04-20T02:54:45.259Z,47.56
2023-04-20T02:57:13.259Z,47.75
2023-04-20T02:59:40.091Z,47.46
2023-04-20T03:02:14.682Z,47.00
2023-04-20T03:04:41.425Z,47.39
2023-04-20T03:07:18.384Z,47.75
2023-04-20T03:09:46.491Z,48.38
2023-04-20T03:12:36.357Z,48.33
2023-04-20T03:15:09.450Z,48.61
2023-04-20T03:17:49.145Z,48.67
2023-04-20T03:20:17.380Z,49.17
2023-04-20T03:22:44.083Z,49.48
2023-04-20T03:25:11.847Z,48.74
2023-04-20T03:28:01.365Z,48.34
2023-04-20T03:30:28.308Z,48.79
2023-04-20T03:33:06.228Z,48.94
2023-04-20T03:35:33.351Z,48.73
2023-04-20T03:38:01.217Z,48.43
2023-04-20T03:40:27.955Z,48.73
2023-04-20T03:42:54.672Z,48.33
2023-04-20T03:45:21.655Z,48.10
2023-04-20T03:47:49.546Z,48.18
2023-04-20T03:50:16.319Z,48.41
2023-04-20T03:52:42.996Z,48.43
2023-04-20T03:55:10.835Z,48.82
2023-04-20T03:57:41.571Z,48.91
2023-04-20T04:00:10.798Z,48.12
2023-04-20T04:02:46.847Z,48.50
2023-04-20T04:05:18.415Z,48.51
2023-04-20T04:07:45.116Z,48.53
2023-04-20T04:10:13.161Z,48.46
2023-04-20T04:12:39.930Z,48.62
2023-04-20T04:15:08.023Z,48.34
2023-04-20T04:17:40.588Z,48.65
2023-04-20T04:20:08.914Z,48.33
2023-04-20T04:22:35.871Z,48.54
2023-04-20T04:25:23.245Z,48.17
2023-04-20T04:27:51.025Z,48.32
2023-04-20T04:30:17.974Z,48.90
2023-04-20T04:32:46.497Z,48.77
2023-04-20T04:35:13.942Z,49.01
2023-04-20T04:37:42.179Z,48.44
2023-04-20T04:40:09.350Z,48.52
2023-04-20T04:42:36.442Z,49.10
2023-04-20T04:45:05.206Z,49.34
2023-04-20T04:47:35.355Z,49.22
2023-04-20T04:50:06.204Z,48.40
2023-04-20T04:52:33.499Z,48.07
2023-04-20T04:55:00.160Z,47.75
2023-04-20T04:57:27.225Z,48.35
2023-04-20T04:59:54.467Z,48.89
2023-04-20T05:02:21.639Z,49.20
2023-04-20T05:04:48.671Z,49.65
2023-04-20T05:07:15.442Z,49.84
2023-04-20T05:09:42.139Z,49.34
2023-04-20T05:12:08.913Z,48.70
2023-04-20T05:14:35.636Z,48.93
2023-04-20T05:17:02.466Z,48.46
2023-04-20T05:19:29.529Z,48.88
2023-04-20T05:21:56.272Z,48.79
2023-04-20T05:24:22.939Z,48.20
2023-04-20T05:26:49.601Z,48.19
2023-04-20T05:29:16.978Z,47.54
2023-04-20T05:31:44.974Z,47.11
2023-04-20T05:34:11.669Z,46.47
2023-04-20T05:36:40.242Z,46.05
2023-04-20T05:39:06.829Z,44.84
2023-04-20T05:41:33.609Z,42.83
2023-04-20T05:44:00.439Z,42.70
2023-04-20T05:46:27.615Z,42.25
2023-04-20T05:48:54.489Z,42.40
2023-04-20T05:51:22.403Z,43.05
2023-04-20T05:53:49.116Z,42.55
2023-04-20T05:56:15.869Z,43.67
2023-04-20T05:58:42.990Z,44.96
2023-04-20T06:01:09.632Z,43.78
2023-04-20T06:03:36.456Z,44.20
2023-04-20T06:06:03.447Z,44.44
2023-04-20T06:08:30.127Z,45.47
2023-04-20T06:10:58.010Z,46.35
2023-04-20T06:13:24.871Z,46.13
2023-04-20T06:15:52.836Z,45.44
2023-04-20T06:18:20.352Z,44.57
2023-04-20T06:20:47.228Z,45.05
2023-04-20T06:23:14.253Z,44.25
2023-04-20T06:25:41.130Z,44.32
2023-04-20T06:28:07.992Z,43.54
2023-04-20T06:30:35.293Z,43.34
2023-04-20T06:33:02.894Z,43.14
2023-04-20T06:35:30.649Z,44.02
2023-04-20T06:37:57.623Z,43.85
2023-04-20T06:40:28.993Z,42.99
2023-04-20T06:42:55.798Z,42.32
2023-04-20T06:45:22.583Z,43.24
2023-04-20T06:47:49.233Z,43.43
2023-04-20T06:50:16.061Z,43.12
2023-04-20T06:52:42.813Z,43.20
2023-04-20T06:55:09.877Z,43.36
2023-04-20T06:57:39.555Z,43.16
2023-04-20T07:00:08.670Z,44.21
2023-04-20T07:02:46.471Z,43.59
2023-04-20T07:05:14.361Z,43.78
2023-04-20T07:07:41.337Z,43.89
2023-04-20T07:10:09.232Z,44.26
2023-04-20T07:12:36.855Z,44.79
2023-04-20T07:15:05.025Z,44.73
2023-04-20T07:17:32.085Z,44.66
2023-04-20T07:20:05.876Z,44.68
2023-04-20T07:22:33.813Z,44.23
2023-04-20T07:25:02.783Z,43.87
2023-04-20T07:27:30.816Z,43.97
2023-04-20T07:29:58.715Z,43.61
2023-04-20T07:32:25.592Z,43.82
2023-04-20T07:34:52.334Z,43.99
2023-04-20T07:37:19.480Z,43.53
2023-04-20T07:39:46.174Z,44.06
2023-04-20T07:42:12.836Z,44.11
2023-04-20T07:44:39.604Z,44.06
2023-04-20T07:47:06.482Z,43.88
2023-04-20T07:49:37.032Z,43.75
2023-04-20T07:52:15.798Z,44.11
2023-04-20T07:55:03.437Z,44.38
2023-04-20T07:57:32.166Z,44.23
2023-04-20T07:59:58.867Z,44.42
2023-04-20T08:02:25.704Z,44.14
2023-04-20T08:04:52.871Z,44.15
2023-04-20T08:07:19.724Z,44.51
2023-04-20T08:09:46.320Z,44.15
2023-04-20T08:12:13.113Z,44.42
2023-04-20T08:14:41.286Z,44.12
2023-04-20T08:17:08.301Z,44.62
2023-04-20T08:19:34.992Z,44.72
2023-04-20T08:22:02.313Z,45.20
2023-04-20T08:24:30.014Z,45.84
2023-04-20T08:26:56.738Z,45.66
2023-04-20T08:29:23.475Z,45.61
2023-04-20T08:31:51.786Z,45.62
2023-04-20T08:34:18.711Z,46.20
2023-04-20T08:36:46.331Z,46.24
2023-04-20T08:39:19.027Z,45.30
2023-04-20T08:41:46.721Z,45.14
2023-04-20T08:44:13.623Z,45.11
2023-04-20T08:46:46.372Z,45.04
2023-04-20T08:49:18.577Z,44.66
2023-04-20T08:51:47.141Z,45.09
2023-04-20T08:54:14.648Z,45.07
2023-04-20T08:56:43.767Z,44.75
2023-04-20T08:59:10.890Z,44.07
2023-04-20T09:01:41.716Z,43.90
2023-04-20T09:04:26.949Z,43.13
2023-04-20T09:06:55.633Z,43.14
2023-04-20T09:09:24.173Z,42.54
2023-04-20T09:12:10.275Z,42.88
2023-04-20T09:14:44.369Z,42.91
2023-04-20T09:17:14.212Z,42.55
2023-04-20T09:19:43.911Z,42.27
2023-04-20T09:22:10.588Z,41.21
2023-04-20T09:24:39.042Z,40.95
2023-04-20T09:27:16.522Z,41.81
2023-04-20T09:29:43.362Z,42.20
2023-04-20T09:32:22.154Z,41.58
2023-04-20T09:34:48.922Z,41.53
2023-04-20T09:37:19.442Z,40.29
2023-04-20T09:39:46.928Z,39.77
2023-04-20T09:42:16.525Z,39.57
2023-04-20T09:44:43.661Z,39.32
2023-04-20T09:47:17.720Z,39.25
2023-04-20T09:49:46.529Z,40.55
2023-04-20T09:52:17.431Z,40.76
2023-04-20T09:54:45.256Z,42.20
2023-04-20T09:57:13.691Z,42.62
2023-04-20T09:59:44.080Z,42.08
2023-04-20T10:02:12.481Z,41.90
2023-04-20T10:05:01.783Z,41.04
2023-04-20T10:07:30.537Z,40.78
2023-04-20T10:10:08.245Z,40.95
2023-04-20T10:12:47.206Z,39.11
2023-04-20T10:15:13.952Z,37.71
2023-04-20T10:17:41.525Z,37.91
2023-04-20T10:20:23.696Z,39.00
2023-04-20T10:22:55.115Z,38.88
2023-04-20T10:25:26.762Z,38.06
2023-04-20T10:27:59.012Z,36.81
2023-04-20T10:30:27.634Z,34.49
2023-04-20T10:33:11.850Z,32.75
2023-04-20T10:35:54.908Z,30.10
2023-04-20T10:38:31.692Z,30.52
2023-04-20T10:41:11.780Z,30.96
2023-04-20T10:43:42.221Z,31.91
2023-04-20T10:46:23.408Z,31.37
2023-04-20T10:49:01.554Z,30.99
2023-04-20T10:51:28.632Z,30.44
2023-04-20T10:54:08.544Z,31.30
2023-04-20T10:56:38.491Z,29.51
2023-04-20T10:59:28.498Z,27.19
2023-04-20T11:01:55.734Z,25.43
2023-04-20T11:04:32.854Z,24.61
2023-04-20T11:07:13.368Z,22.91
2023-04-20T11:09:42.698Z,23.90
2023-04-20T11:12:12.603Z,25.31
2023-04-20T11:14:58.698Z,28.17
2023-04-20T11:17:36.016Z,31.81
2023-04-20T11:20:12.122Z,32.91
2023-04-20T11:22:40.049Z,34.25
2023-04-20T11:25:11.332Z,36.14
2023-04-20T11:27:39.204Z,36.66
2023-04-20T11:30:07.864Z,37.13
2023-04-20T11:32:36.029Z,37.39
2023-04-20T11:35:09.396Z,37.69
2023-04-20T11:38:05.601Z,38.76
2023-04-20T11:40:32.435Z,38.27
2023-04-20T11:43:00.705Z,38.34
2023-04-20T11:45:31.131Z,37.19
2023-04-20T11:47:58.082Z,33.45
2023-04-20T11:50:24.962Z,29.21
2023-04-20T11:52:51.599Z,27.80
2023-04-20T11:55:18.419Z,25.58
2023-04-20T11:57:45.876Z,25.60
2023-04-20T12:00:13.110Z,26.00
2023-04-20T12:02:42.872Z,27.74
2023-04-20T12:05:09.761Z,27.86
2023-04-20T12:07:36.527Z,29.46
2023-04-20T12:10:03.999Z,30.73
2023-04-20T12:12:30.962Z,32.57
2023-04-20T12:14:57.652Z,34.04
2023-04-20T12:17:24.313Z,35.22
2023-04-20T12:19:51.049Z,36.40
2023-04-20T12:22:17.903Z,37.55
2023-04-20T12:24:44.558Z,38.45
2023-04-20T12:27:11.210Z,38.35
2023-04-20T12:29:37.806Z,38.80
2023-04-20T12:32:04.550Z,38.82
2023-04-20T12:34:31.203Z,39.24
2023-04-20T12:36:57.827Z,38.93
2023-04-20T12:39:24.565Z,38.80
2023-04-20T12:41:51.299Z,37.88
2023-04-20T12:44:18.080Z,37.65
2023-04-20T12:46:45.325Z,37.50
2023-04-20T12:49:12.093Z,37.47
2023-04-20T12:51:38.791Z,37.03
2023-04-20T12:54:05.531Z,36.55
2023-04-20T12:56:32.200Z,35.86
2023-04-20T12:58:58.846Z,35.37
2023-04-20T13:01:25.797Z,34.92
2023-04-20T13:03:52.912Z,34.43
2023-04-20T13:06:20.378Z,35.43
2023-04-20T13:08:47.340Z,35.62
2023-04-20T13:11:15.974Z,34.59
2023-04-20T13:13:42.600Z,34.70
2023-04-20T13:16:09.588Z,34.05
2023-04-20T13:18:36.326Z,34.44
2023-04-20T13:21:03.085Z,35.41
2023-04-20T13:23:29.773Z,35.87
2023-04-20T13:25:59.105Z,36.61
2023-04-20T13:28:26.147Z,37.11
2023-04-20T13:30:55.405Z,40.01
2023-04-20T13:33:22.077Z,41.81
2023-04-20T13:35:48.716Z,43.88
2023-04-20T13:38:15.877Z,44.71
2023-04-20T13:40:44.426Z,45.56
2023-04-20T13:43:12.309Z,45.03
2023-04-20T13:45:39.172Z,45.70
2023-04-20T13:48:05.951Z,46.17
2023-04-20T13:50:32.644Z,46.29
2023-04-20T13:52:59.470Z,46.71
2023-04-20T13:55:27.221Z,45.09
2023-04-20T13:57:53.947Z,44.64
2023-04-20T14:00:21.671Z,46.30
2023-04-20T14:02:48.425Z,45.14
2023-04-20T14:05:15.184Z,43.61
2023-04-20T14:07:41.838Z,43.56
2023-04-20T14:10:09.102Z,42.90
2023-04-20T14:12:35.749Z,42.66
2023-04-20T14:15:02.538Z,42.13
2023-04-20T14:17:29.193Z,41.65
2023-04-20T14:19:56.157Z,40.81
2023-04-20T14:22:22.878Z,42.39
2023-04-20T14:24:49.548Z,49.76
2023-04-20T14:27:16.213Z,50.80
2023-04-20T14:29:42.919Z,51.67
2023-04-20T14:32:09.544Z,53.05
2023-04-20T14:34:36.182Z,57.03
2023-04-20T14:37:02.818Z,59.43
2023-04-20T14:39:29.449Z,59.29
2023-04-20T14:41:56.244Z,61.26
2023-04-20T14:44:22.993Z,60.21
2023-04-20T14:46:49.774Z,60.38
2023-04-20T14:49:16.672Z,59.80
2023-04-20T14:51:43.370Z,59.41
2023-04-20T14:54:10.100Z,56.91
2023-04-20T14:56:36.738Z,58.94
2023-04-20T14:59:03.493Z,59.20
2023-04-20T15:01:30.261Z,58.92
2023-04-20T15:03:57.115Z,59.54
2023-04-20T15:06:24.309Z,59.47
2023-04-20T15:08:54.454Z,60.92
2023-04-20T15:11:21.180Z,59.52
2023-04-20T15:13:49.384Z,58.82
2023-04-20T15:16:16.244Z,58.30
2023-04-20T15:18:43.215Z,58.47
2023-04-20T15:21:10.807Z,58.32
2023-04-20T15:23:37.528Z,57.44
2023-04-20T15:26:04.371Z,57.19
2023-04-20T15:28:31.149Z,56.91
2023-04-20T15:30:58.046Z,56.54
2023-04-20T15:33:24.967Z,56.96
2023-04-20T15:35:51.809Z,55.00
2023-04-20T15:38:18.755Z,55.26
2023-04-20T15:40:46.620Z,52.25
2023-04-20T15:43:13.410Z,52.12
2023-04-20T15:45:41.274Z,52.43
2023-04-20T15:48:09.164Z,49.79
2023-04-20T15:50:36.162Z,49.63
2023-04-20T15:53:02.938Z,51.69
2023-04-20T15:55:34.267Z,52.62
2023-04-20T15:58:01.229Z,52.51
2023-04-20T16:00:27.849Z,50.36
2023-04-20T16:02:54.718Z,49.62
2023-04-20T16:05:21.892Z,50.31
2023-04-20T16:07:48.642Z,49.36
2023-04-20T16:10:15.355Z,50.65
2023-04-20T16:12:41.999Z,49.99
2023-04-20T16:15:09.424Z,50.04
2023-04-20T16:17:36.080Z,48.84
2023-04-20T16:20:02.840Z,48.89
2023-04-20T16:22:29.717Z,49.66
2023-04-20T16:24:56.686Z,50.48
2023-04-20T16:27:23.398Z,51.39
2023-04-20T16:29:49.991Z,51.26
2023-04-20T16:32:16.691Z,51.93
2023-04-20T16:34:43.600Z,53.00
2023-04-20T16:37:10.618Z,52.71
2023-04-20T16:39:37.345Z,52.23
2023-04-20T16:42:04.104Z,51.58
2023-04-20T16:44:30.800Z,52.09
2023-04-20T16:46:57.613Z,50.93
2023-04-20T16:49:24.401Z,50.83
2023-04-20T16:51:51.063Z,51.31
2023-04-20T16:54:18.030Z,51.61
2023-04-20T16:56:45.059Z,51.43
2023-04-20T16:59:11.722Z,52.23
2023-04-20T17:01:38.338Z,52.95
2023-04-20T17:04:05.555Z,53.59
2023-04-20T17:06:32.323Z,54.27
2023-04-20T17:09:06.932Z,54.75
2023-04-20T17:11:38.776Z,55.54
2023-04-20T17:14:06.368Z,57.53
2023-04-20T17:16:33.322Z,59.58
2023-04-20T17:19:00.038Z,60.63
2023-04-20T17:21:27.710Z,61.37
2023-04-20T17:23:57.359Z,61.69
2023-04-20T17:26:24.087Z,62.34
2023-04-20T17:28:50.840Z,59.84
2023-04-20T17:31:17.405Z,60.75
2023-04-20T17:33:44.962Z,62.02
2023-04-20T17:36:11.687Z,61.13
2023-04-20T17:38:41.255Z,60.55
2023-04-20T17:41:07.945Z,61.34
2023-04-20T17:43:36.829Z,61.61
2023-04-20T17:46:03.507Z,61.39
2023-04-20T17:48:30.415Z,62.21
2023-04-20T17:50:58.708Z,62.61
2023-04-20T17:53:25.861Z,63.19
2023-04-20T17:55:52.506Z,62.70
2023-04-20T17:58:19.343Z,63.25
2023-04-20T18:00:47.532Z,63.58
2023-04-20T18:03:14.823Z,62.94
2023-04-20T18:05:42.401Z,62.87
2023-04-20T18:08:10.277Z,63.20
2023-04-20T18:10:37.710Z,62.73
2023-04-20T18:13:05.098Z,62.73
2023-04-20T18:15:32.004Z,62.51
2023-04-20T18:17:58.765Z,62.59
2023-04-20T18:20:25.592Z,62.70
2023-04-20T18:22:52.273Z,62.71
2023-04-20T18:25:19.398Z,62.24
2023-04-20T18:27:46.428Z,62.10
2023-04-20T18:30:14.090Z,62.08
2023-04-20T18:32:40.806Z,61.76
2023-04-20T18:35:08.344Z,61.46
2023-04-20T18:37:35.208Z,61.96
2023-04-20T18:40:01.878Z,62.09
2023-04-20T18:42:28.696Z,62.34
2023-04-20T18:44:56.016Z,62.20
2023-04-20T18:47:24.571Z,61.93
2023-04-20T18:49:51.305Z,61.79
2023-04-20T18:52:19.213Z,61.32
2023-04-20T18:54:46.892Z,61.54
2023-04-20T18:57:13.599Z,61.29
2023-04-20T18:59:40.332Z,61.24
2023-04-20T19:02:07.119Z,62.12
2023-04-20T19:04:36.191Z,62.07
2023-04-20T19:07:02.851Z,62.31
2023-04-20T19:09:29.497Z,61.69
2023-04-20T19:11:57.020Z,61.84
2023-04-20T19:14:23.647Z,62.72
2023-04-20T19:16:50.330Z,62.36
2023-04-20T19:19:17.328Z,62.69
2023-04-20T19:21:44.043Z,62.60
2023-04-20T19:24:10.737Z,62.76
2023-04-20T19:26:37.345Z,62.85
2023-04-20T19:29:04.217Z,62.44
2023-04-20T19:31:36.665Z,62.24
2023-04-20T19:34:04.561Z,61.87
2023-04-20T19:36:32.104Z,61.59
2023-04-20T19:38:59.248Z,61.33
2023-04-20T19:41:26.225Z,60.51
2023-04-20T19:43:53.148Z,60.36
2023-04-20T19:46:20.326Z,60.81
2023-04-20T19:48:47.050Z,60.73
2023-04-20T19:51:13.711Z,60.40
2023-04-20T19:53:40.402Z,60.20
2023-04-20T19:56:07.045Z,60.43
2023-04-20T19:58:33.714Z,60.04
2023-04-20T20:01:00.664Z,60.34
2023-04-20T20:03:30.820Z,60.54
2023-04-20T20:05:57.579Z,60.96
2023-04-20T20:08:24.363Z,61.01
2023-04-20T20:10:51.522Z,61.04
2023-04-20T20:13:18.421Z,60.96
2023-04-20T20:15:46.064Z,61.08
2023-04-20T20:18:14.166Z,61.19
2023-04-20T20:20:40.886Z,61.13
2023-04-20T20:23:07.794Z,60.83
2023-04-20T20:25:35.372Z,61.08
2023-04-20T20:28:02.337Z,61.02
2023-04-20T20:30:29.301Z,61.18
2023-04-20T20:32:58.653Z,61.34
2023-04-20T20:35:31.616Z,61.00
2023-04-20T20:37:59.310Z,61.08
2023-04-20T20:40:26.459Z,61.24
2023-04-20T20:42:53.075Z,61.17
2023-04-20T20:45:19.913Z,61.26
2023-04-20T20:47:46.660Z,62.03
2023-04-20T20:50:14.578Z,61.93
2023-04-20T20:52:41.393Z,62.04
2023-04-20T20:55:09.099Z,62.28
2023-04-20T20:57:36.203Z,61.80
2023-04-20T21:00:07.846Z,62.48
2023-04-20T21:02:34.868Z,62.19
2023-04-20T21:05:01.958Z,62.07
2023-04-20T21:07:28.636Z,62.27
2023-04-20T21:09:55.396Z,62.40
2023-04-20T21:12:22.022Z,62.19
2023-04-20T21:14:51.229Z,62.35
2023-04-20T21:17:18.658Z,62.72
2023-04-20T21:19:45.791Z,62.88
2023-04-20T21:22:12.628Z,63.04
2023-04-20T21:24:39.545Z,63.37
2023-04-20T21:27:06.258Z,63.36
2023-04-20T21:29:32.926Z,63.48
2023-04-20T21:31:59.786Z,64.09
2023-04-20T21:34:26.983Z,64.02
2023-04-20T21:36:53.561Z,64.23
2023-04-20T21:39:20.552Z,63.83
2023-04-20T21:41:47.357Z,63.89
2023-04-20T21:44:14.090Z,63.89
2023-04-20T21:46:40.814Z,64.05
2023-04-20T21:49:07.617Z,63.94
2023-04-20T21:51:34.338Z,63.77
2023-04-20T21:54:00.990Z,63.98
2023-04-20T21:56:27.618Z,64.15
2023-04-20T21:58:54.282Z,64.07
2023-04-20T22:01:20.953Z,64.45
2023-04-20T22:03:47.912Z,63.98
2023-04-20T22:06:15.504Z,64.29
2023-04-20T22:08:42.160Z,64.57
2023-04-20T22:11:08.929Z,64.53
2023-04-20T22:13:36.105Z,64.61
2023-04-20T22:16:03.046Z,64.24
2023-04-20T22:18:29.761Z,65.06
2023-04-20T22:20:56.403Z,64.91
2023-04-20T22:23:23.023Z,65.44
2023-04-20T22:25:49.767Z,65.04
2023-04-20T22:28:16.688Z,65.65
2023-04-20T22:30:43.458Z,65.54
2023-04-20T22:33:10.145Z,65.82
2023-04-20T22:35:36.910Z,65.67
2023-04-20T22:38:03.639Z,66.23
2023-04-20T22:40:30.401Z,65.85
2023-04-20T22:42:57.042Z,65.96
2023-04-20T22:45:23.973Z,66.12
2023-04-20T22:47:50.674Z,66.67
2023-04-20T22:50:17.390Z,66.13
2023-04-20T22:52:44.270Z,66.77
2023-04-20T22:55:11.127Z,65.97
2023-04-20T22:57:39.036Z,65.43
2023-04-20T23:00:07.940Z,65.68
2023-04-20T23:02:34.749Z,66.53
2023-04-20T23:05:01.596Z,66.17
2023-04-20T23:07:28.311Z,65.71
2023-04-20T23:09:56.352Z,65.51
2023-04-20T23:12:23.302Z,65.53
2023-04-20T23:14:50.739Z,65.15
2023-04-20T23:17:17.465Z,65.59
2023-04-20T23:19:44.072Z,65.67
2023-04-20T23:22:10.886Z,65.40
2023-04-20T23:24:37.553Z,65.08
2023-04-20T23:27:04.350Z,65.51
2023-04-20T23:29:31.084Z,64.77
2023-04-20T23:31:57.835Z,65.26
2023-04-20T23:34:24.578Z,65.16
2023-04-20T23:36:53.718Z,65.63
2023-04-20T23:39:21.096Z,65.81
2023-04-20T23:41:47.967Z,66.34
2023-04-20T23:44:14.654Z,66.91
2023-04-20T23:46:41.364Z,66.80
2023-04-20T23:49:08.052Z,67.38
2023-04-20T23:51:34.732Z,67.53
2023-04-20T23:54:01.340Z,68.27
2023-04-20T23:56:28.134Z,68.33
2023-04-20T23:58:55.192Z,69.09
